Time;durP1;ratioP1;P1;durP2;ratioP2;P2;SDS_P1;SDS_P2;PMS_P1;PMS_P2;Temp;Humidity;BMP_temperature;BMP_pressure;BME280_temperature;BME280_humidity;BME280_pressure;Samples;Min_cycle;Max_cycle;Signal;HPM_P1;HPM_P2
2024/01/29 00:01:43;;;;;;;4.50;2.47;;;;;;;7.82;31.74;102170.47;4960704;28;20043;-73
2024/01/29 00:04:12;;;;;;;4.20;2.40;;;;;;;7.79;32.24;102167.91;4959079;28;20606;-73
2024/01/29 00:06:41;;;;;;;4.63;2.70;;;;;;;7.79;32.35;102172.47;4962212;28;20043;-72
2024/01/29 00:09:09;;;;;;;3.65;2.30;;;;;;;7.78;32.13;102167.97;4961589;28;20105;-73
2024/01/29 00:11:37;;;;;;;4.85;2.60;;;;;;;7.78;32.33;102162.53;4967098;28;20118;-73
2024/01/29 00:14:06;;;;;;;4.10;2.35;;;;;;;7.77;32.01;102168.94;4963119;28;20053;-73
2024/01/29 00:16:35;;;;;;;4.20;2.40;;;;;;;7.78;32.47;102170.72;4962648;28;20152;-73
2024/01/29 00:19:03;;;;;;;4.22;2.45;;;;;;;7.76;32.23;102167.22;4967694;28;20548;-73
2024/01/29 00:21:32;;;;;;;6.20;2.72;;;;;;;7.77;32.14;102163.50;4962443;28;20046;-73
2024/01/29 00:24:00;;;;;;;3.70;2.50;;;;;;;7.73;32.61;102157.34;4959748;28;20054;-73
2024/01/29 00:26:31;;;;;;;4.25;2.78;;;;;;;7.75;32.42;102160.00;4964793;28;20480;-73
2024/01/29 00:28:58;;;;;;;3.88;2.40;;;;;;;7.73;32.57;102165.53;4962448;28;20125;-73
2024/01/29 00:31:29;;;;;;;3.85;2.15;;;;;;;7.73;32.29;102162.81;4962625;28;20048;-74
2024/01/29 00:33:57;;;;;;;3.97;2.40;;;;;;;7.71;32.37;102169.28;4962855;28;20573;-74
2024/01/29 00:36:25;;;;;;;3.65;2.33;;;;;;;7.70;32.50;102165.69;4962321;28;20051;-74
2024/01/29 00:38:54;;;;;;;5.05;2.78;;;;;;;7.72;32.43;102171.06;4961726;28;20142;-74
2024/01/29 00:41:23;;;;;;;4.45;2.50;;;;;;;7.70;32.57;102167.53;4958484;28;20075;-74
2024/01/29 00:43:51;;;;;;;3.45;2.15;;;;;;;7.69;32.65;102163.91;4963669;28;20122;-74
2024/01/29 00:46:19;;;;;;;4.97;2.70;;;;;;;7.69;32.51;102161.19;4961683;28;21237;-74
2024/01/29 00:48:48;;;;;;;3.88;2.30;;;;;;;7.69;32.75;102161.19;4962834;28;20442;-74
2024/01/29 00:51:16;;;;;;;4.28;2.20;;;;;;;7.70;32.66;102164.78;4961940;28;20050;-74
2024/01/29 00:53:44;;;;;;;4.72;2.45;;;;;;;7.70;32.78;102157.50;4961277;28;20105;-74
2024/01/29 00:56:13;;;;;;;4.07;2.38;;;;;;;7.70;32.63;102162.94;4961100;28;20043;-74
2024/01/29 00:58:44;;;;;;;4.47;2.60;;;;;;;7.70;32.39;102162.06;4963532;28;20051;-74
2024/01/29 01:01:12;;;;;;;5.38;2.65;;;;;;;7.70;32.72;102164.78;4961510;28;20038;-74
2024/01/29 01:03:40;;;;;;;4.20;2.30;;;;;;;7.69;32.72;102166.63;4964178;28;20178;-74
2024/01/29 01:06:10;;;;;;;5.32;2.35;;;;;;;7.70;32.65;102173.84;4960300;28;20035;-74
2024/01/29 01:08:38;;;;;;;4.07;2.58;;;;;;;7.68;32.74;102164.91;4958409;28;20125;-74
2024/01/29 01:11:07;;;;;;;3.65;2.45;;;;;;;7.68;32.61;102173.09;4958270;28;20061;-73
2024/01/29 01:13:37;;;;;;;4.40;2.75;;;;;;;7.68;32.51;102172.19;4965481;28;20058;-73
2024/01/29 01:16:05;;;;;;;5.10;2.78;;;;;;;7.68;32.72;102173.09;4961373;28;20047;-73
2024/01/29 01:18:33;;;;;;;4.82;2.60;;;;;;;7.67;32.75;102175.88;4966362;28;20039;-73
2024/01/29 01:21:01;;;;;;;4.28;2.40;;;;;;;7.68;32.60;102180.38;4962882;28;20506;-73
2024/01/29 01:23:29;;;;;;;5.47;2.80;;;;;;;7.67;32.70;102176.78;4959250;28;20054;-73
2024/01/29 01:25:57;;;;;;;3.58;2.33;;;;;;;7.65;32.62;102178.69;4961197;28;20058;-73
2024/01/29 01:28:25;;;;;;;3.90;2.28;;;;;;;7.65;32.56;102175.97;4965807;28;20130;-73
2024/01/29 01:30:55;;;;;;;4.70;2.45;;;;;;;7.67;32.75;102178.63;4963394;28;20157;-73
2024/01/29 01:33:23;;;;;;;4.57;2.70;;;;;;;7.64;32.63;102184.22;4966378;28;20058;-73
2024/01/29 01:35:51;;;;;;;4.28;2.35;;;;;;;7.64;32.80;102182.38;4958498;28;20057;-73
2024/01/29 01:38:19;;;;;;;4.28;2.42;;;;;;;7.65;32.86;102185.97;4962747;28;20494;-73
2024/01/29 01:40:47;;;;;;;3.67;2.30;;;;;;;7.64;33.04;102185.09;4961643;28;20150;-73
2024/01/29 01:43:17;;;;;;;4.03;2.42;;;;;;;7.65;33.02;102192.31;4969368;28;20065;-73
2024/01/29 01:45:46;;;;;;;4.38;2.63;;;;;;;7.64;32.75;102185.09;4959469;28;20074;-73
2024/01/29 01:48:15;;;;;;;4.18;2.38;;;;;;;7.67;32.82;102186.78;4966472;28;20050;-73
2024/01/29 01:50:43;;;;;;;4.63;2.60;;;;;;;7.64;33.04;102181.50;4965835;28;20050;-73
2024/01/29 01:53:11;;;;;;;4.65;2.28;;;;;;;7.64;33.21;102181.50;4965782;28;20078;-73
2024/01/29 01:55:39;;;;;;;4.28;2.50;;;;;;;7.64;32.84;102182.38;4959123;28;20713;-73
2024/01/29 01:58:09;;;;;;;4.10;2.35;;;;;;;7.63;33.04;102185.19;4962680;28;20113;-74
2024/01/29 02:00:37;;;;;;;3.38;2.20;;;;;;;7.63;33.23;102183.34;4959902;28;20085;-73
2024/01/29 02:03:06;;;;;;;3.72;2.63;;;;;;;7.63;33.29;102183.34;4955775;28;20142;-73
2024/01/29 02:05:35;;;;;;;3.67;2.50;;;;;;;7.64;33.07;102185.09;4960531;28;20406;-73
2024/01/29 02:08:04;;;;;;;4.38;2.80;;;;;;;7.62;32.91;102183.41;4965578;28;20678;-73
2024/01/29 02:10:32;;;;;;;3.78;2.50;;;;;;;7.62;33.26;102195.19;4966184;28;20078;-73
2024/01/29 02:13:00;;;;;;;3.88;2.17;;;;;;;7.61;33.23;102187.97;4960915;28;20113;-73
2024/01/29 02:15:28;;;;;;;4.05;2.35;;;;;;;7.62;32.88;102194.31;4962435;28;20499;-73
2024/01/29 02:17:56;;;;;;;3.58;2.35;;;;;;;7.61;33.02;102195.25;4962308;28;20446;-73
2024/01/29 02:20:24;;;;;;;4.20;2.50;;;;;;;7.61;33.05;102201.59;4961886;28;20043;-73
2024/01/29 02:22:54;;;;;;;3.88;2.30;;;;;;;7.62;33.07;102199.75;4958420;28;20130;-72
2024/01/29 02:25:21;;;;;;;4.47;2.22;;;;;;;7.61;33.21;102207.03;4961449;28;20042;-73
2024/01/29 02:27:49;;;;;;;4.70;2.50;;;;;;;7.60;33.20;102201.72;4959185;28;20126;-73
2024/01/29 02:30:18;;;;;;;4.22;2.50;;;;;;;7.60;33.03;102197.09;4962692;28;20372;-73
2024/01/29 02:32:46;;;;;;;4.28;2.47;;;;;;;7.59;33.23;102195.38;4961956;28;20098;-73
2024/01/29 02:35:14;;;;;;;4.38;2.80;;;;;;;7.59;33.37;102192.66;4960781;28;20067;-73
2024/01/29 02:37:42;;;;;;;3.90;2.40;;;;;;;7.59;33.05;102198.09;4967863;28;20070;-73
2024/01/29 02:40:12;;;;;;;4.47;2.30;;;;;;;7.60;33.05;102205.28;4982661;28;20078;-73
2024/01/29 02:42:41;;;;;;;4.30;2.53;;;;;;;7.59;33.17;102211.72;4966949;28;20109;-73
2024/01/29 02:45:09;;;;;;;4.28;2.47;;;;;;;7.57;33.14;102203.63;4965164;28;20134;-73
2024/01/29 02:47:37;;;;;;;3.53;2.30;;;;;;;7.58;33.38;102205.41;4962975;28;20133;-73
2024/01/29 02:50:05;;;;;;;4.35;2.90;;;;;;;7.58;33.32;102197.22;4969096;28;20484;-73
2024/01/29 02:52:33;;;;;;;3.65;2.33;;;;;;;7.58;33.30;102199.06;4971825;28;20049;-73
2024/01/29 02:55:01;;;;;;;4.32;2.55;;;;;;;7.57;33.18;102198.19;4965126;28;20093;-73
2024/01/29 02:57:31;;;;;;;5.22;2.63;;;;;;;7.58;33.38;102202.66;4967536;28;20530;-73
2024/01/29 02:59:58;;;;;;;4.28;2.60;;;;;;;7.56;33.40;102193.69;4966171;28;20051;-73
2024/01/29 03:02:26;;;;;;;4.28;2.35;;;;;;;7.56;33.40;102187.34;4963725;28;20057;-73
2024/01/29 03:04:54;;;;;;;4.15;2.40;;;;;;;7.56;33.36;102187.34;4966981;28;20095;-73
2024/01/29 03:07:23;;;;;;;4.10;2.60;;;;;;;7.56;33.24;102195.53;4966257;28;20339;-74
2024/01/29 03:09:50;;;;;;;3.80;2.28;;;;;;;7.56;33.45;102196.41;4966761;28;20137;-73
2024/01/29 03:12:18;;;;;;;4.78;2.47;;;;;;;7.56;33.47;102199.13;4964525;28;20069;-74
2024/01/29 03:14:48;;;;;;;3.83;2.42;;;;;;;7.58;33.21;102196.34;4961325;28;20299;-73
2024/01/29 03:17:16;;;;;;;4.03;2.47;;;;;;;7.57;33.42;102194.56;4961728;28;21024;-73
2024/01/29 03:19:43;;;;;;;3.72;2.33;;;;;;;7.56;33.61;102207.31;4967797;28;20493;-73
2024/01/29 03:22:11;;;;;;;4.60;2.47;;;;;;;7.56;33.38;102199.13;4966704;28;20058;-73
2024/01/29 03:24:39;;;;;;;4.30;2.22;;;;;;;7.57;33.44;102208.19;4959787;28;20463;-73
2024/01/29 03:27:07;;;;;;;3.30;2.33;;;;;;;7.56;33.44;102207.31;4964984;28;20049;-73
2024/01/29 03:29:35;;;;;;;5.10;2.40;;;;;;;7.57;33.38;102194.56;4961662;28;20601;-73
2024/01/29 03:32:06;;;;;;;4.53;2.60;;;;;;;7.60;33.45;102196.25;4961963;28;20061;-73
2024/01/29 03:34:34;;;;;;;4.28;2.50;;;;;;;7.58;33.47;102190.88;4966692;28;20047;-73
2024/01/29 03:37:02;;;;;;;5.25;2.50;;;;;;;7.57;33.32;102189.13;4968746;28;20093;-73
2024/01/29 03:39:30;;;;;;;3.40;2.17;;;;;;;7.57;33.52;102190.00;4966313;28;20055;-73
2024/01/29 03:41:58;;;;;;;4.32;2.60;;;;;;;7.55;33.50;102189.19;4963001;28;20046;-73
2024/01/29 03:44:26;;;;;;;4.57;2.42;;;;;;;7.55;33.43;102191.03;4963306;28;20110;-73
2024/01/29 03:46:54;;;;;;;4.57;2.47;;;;;;;7.54;33.49;102198.31;4968749;28;20078;-73
2024/01/29 03:49:23;;;;;;;4.07;2.45;;;;;;;7.55;33.34;102196.50;4968364;28;20441;-73
2024/01/29 03:51:51;;;;;;;4.13;2.42;;;;;;;7.52;33.43;102193.91;4961985;28;20054;-73
2024/01/29 03:54:19;;;;;;;3.75;2.33;;;;;;;7.51;33.47;102184.00;4964276;28;20308;-73
2024/01/29 03:56:47;;;;;;;5.13;2.63;;;;;;;7.49;33.69;102186.81;4966500;28;20051;-73
2024/01/29 03:59:15;;;;;;;3.88;2.50;;;;;;;7.49;33.63;102194.09;4966780;28;20070;-73
2024/01/29 04:01:43;;;;;;;5.07;2.40;;;;;;;7.47;33.83;102193.28;4965956;28;20096;-73
2024/01/29 04:04:11;;;;;;;3.90;2.50;;;;;;;7.46;33.73;102192.41;4964967;28;20109;-73
2024/01/29 04:06:43;;;;;;;4.57;2.80;;;;;;;7.47;33.56;102198.75;4965289;28;20054;-73
2024/01/29 04:09:12;;;;;;;3.80;2.47;;;;;;;7.43;33.60;102191.72;4959276;28;20043;-73
2024/01/29 04:11:41;;;;;;;3.90;2.50;;;;;;;7.44;33.47;102188.00;4961059;28;20031;-73
2024/01/29 04:14:09;;;;;;;4.85;2.53;;;;;;;7.44;33.57;102185.28;4963831;28;20499;-73
2024/01/29 04:16:37;;;;;;;3.40;2.15;;;;;;;7.42;33.76;102182.66;4963314;28;20074;-73
2024/01/29 04:19:05;;;;;;;4.72;2.70;;;;;;;7.42;33.87;102187.22;4962844;28;20043;-73
2024/01/29 04:21:33;;;;;;;4.80;2.50;;;;;;;7.40;33.65;102192.75;4962659;28;20090;-73
2024/01/29 04:24:02;;;;;;;4.15;2.40;;;;;;;7.40;33.91;102187.31;4960161;28;20521;-73
2024/01/29 04:26:30;;;;;;;3.92;2.65;;;;;;;7.37;33.93;102190.19;4967236;28;20042;-73
2024/01/29 04:28:58;;;;;;;4.88;2.60;;;;;;;7.37;33.92;102197.47;4962259;28;20043;-72
2024/01/29 04:31:26;;;;;;;4.57;2.70;;;;;;;7.36;34.06;102196.59;4963936;28;20039;-73
2024/01/29 04:33:54;;;;;;;4.78;2.60;;;;;;;7.34;33.86;102190.34;4965518;28;20514;-73
2024/01/29 04:36:22;;;;;;;4.93;2.60;;;;;;;7.34;33.97;102198.53;4964042;28;20069;-73
2024/01/29 04:38:50;;;;;;;4.45;2.78;;;;;;;7.32;34.01;102197.72;4962917;28;20062;-73
2024/01/29 04:41:20;;;;;;;5.45;2.65;;;;;;;7.34;33.96;102194.91;4962657;28;20068;-72
2024/01/29 04:43:48;;;;;;;4.57;2.55;;;;;;;7.33;33.80;102193.16;4963538;28;20153;-73
2024/01/29 04:46:16;;;;;;;4.30;2.55;;;;;;;7.33;34.22;102204.06;4965519;28;20090;-72
2024/01/29 04:48:44;;;;;;;5.00;2.80;;;;;;;7.28;33.79;102208.84;4965662;28;20385;-73
2024/01/29 04:51:12;;;;;;;4.28;2.60;;;;;;;7.30;34.07;102210.53;4962301;28;20066;-73
2024/01/29 04:53:41;;;;;;;5.00;2.70;;;;;;;7.28;34.11;102209.72;4964755;28;20057;-73
2024/01/29 04:56:09;;;;;;;4.85;3.15;;;;;;;7.29;34.13;102208.75;4959284;28;20050;-72
2024/01/29 04:58:38;;;;;;;4.40;2.58;;;;;;;7.29;34.16;102211.47;4962744;28;20058;-72
2024/01/29 05:01:06;;;;;;;5.40;3.17;;;;;;;7.27;34.07;102207.09;4962707;28;20466;-72
2024/01/29 05:03:34;;;;;;;5.20;3.00;;;;;;;7.27;34.42;102209.81;4959690;28;20402;-73
2024/01/29 05:06:02;;;;;;;4.47;3.22;;;;;;;7.27;34.48;102212.56;4958684;28;20136;-73
2024/01/29 05:08:30;;;;;;;4.18;2.60;;;;;;;7.26;34.25;102214.38;4964532;28;20047;-72
2024/01/29 05:10:58;;;;;;;4.50;2.80;;;;;;;7.25;34.29;102220.78;4961272;28;20077;-73
2024/01/29 05:13:26;;;;;;;4.20;2.78;;;;;;;7.25;34.30;102222.63;4962859;28;20070;-73
2024/01/29 05:15:55;;;;;;;4.47;2.58;;;;;;;7.26;34.57;102219.84;4963805;28;20394;-74
2024/01/29 05:18:23;;;;;;;5.40;2.63;;;;;;;7.25;34.39;102219.91;4966471;28;20069;-73
2024/01/29 05:20:51;;;;;;;5.10;2.83;;;;;;;7.24;34.34;102219.03;4965060;28;20137;-73
2024/01/29 05:23:19;;;;;;;5.28;2.80;;;;;;;7.24;34.71;102221.75;4969104;28;20134;-73
2024/01/29 05:25:47;;;;;;;4.15;2.90;;;;;;;7.24;34.68;102219.03;4959685;28;20051;-73
2024/01/29 05:28:15;;;;;;;5.00;2.63;;;;;;;7.24;34.70;102226.31;4967072;28;20138;-72
2024/01/29 05:30:43;;;;;;;5.00;3.28;;;;;;;7.23;34.76;102217.25;4962650;28;20142;-72
2024/01/29 05:33:12;;;;;;;5.55;2.80;;;;;;;7.24;34.63;102227.19;4961894;28;20058;-73
2024/01/29 05:35:53;;;;;;;4.20;2.80;;;;;;;7.20;34.87;102221.00;4980117;28;20490;-73
2024/01/29 05:38:21;;;;;;;3.97;2.65;;;;;;;7.23;34.71;102233.59;4959447;28;20382;-73
2024/01/29 05:40:49;;;;;;;4.35;2.72;;;;;;;7.23;34.82;102221.81;4961725;28;20112;-73
2024/01/29 05:43:17;;;;;;;4.20;3.03;;;;;;;7.22;34.58;102229.09;4963536;28;20137;-73
2024/01/29 05:45:46;;;;;;;5.28;3.10;;;;;;;7.22;34.84;102228.22;4966647;28;20039;-73
2024/01/29 05:48:15;;;;;;;4.50;2.83;;;;;;;7.22;34.85;102226.38;4958529;28;20114;-72
2024/01/29 05:50:43;;;;;;;4.50;2.70;;;;;;;7.22;35.02;102241.84;4975938;28;20051;-73
2024/01/29 05:53:11;;;;;;;4.55;2.60;;;;;;;7.20;34.89;102240.06;4978963;28;20602;-73
2024/01/29 05:55:39;;;;;;;5.07;3.00;;;;;;;7.20;35.15;102250.09;4959073;28;20058;-73
2024/01/29 05:58:17;;;;;;;5.30;2.85;;;;;;;7.19;35.12;102242.88;4980741;28;20062;-73
2024/01/29 06:00:46;;;;;;;5.63;2.80;;;;;;;7.19;35.26;102231.97;4966582;28;20074;-72
2024/01/29 06:03:17;;;;;;;4.60;3.10;;;;;;;7.20;35.29;102226.47;4956033;28;20142;-72
2024/01/29 06:05:47;;;;;;;5.32;2.80;;;;;;;7.22;35.09;102236.41;4959211;28;20049;-72
2024/01/29 06:08:15;;;;;;;5.78;2.90;;;;;;;7.18;34.96;102236.56;4964796;28;20301;-72
2024/01/29 06:10:43;;;;;;;5.32;2.70;;;;;;;7.19;35.19;102234.69;4965671;28;20193;-72
2024/01/29 06:13:11;;;;;;;3.95;2.53;;;;;;;7.17;35.01;102232.09;4969132;28;20558;-72
2024/01/29 06:15:39;;;;;;;4.90;3.30;;;;;;;7.16;35.16;102238.50;4967164;28;20039;-72
2024/01/29 06:18:07;;;;;;;5.82;3.22;;;;;;;7.15;35.11;102228.56;4971017;28;20226;-72
2024/01/29 06:20:37;;;;;;;5.65;3.10;;;;;;;7.15;35.06;102225.81;4967555;28;20555;-72
2024/01/29 06:23:06;;;;;;;4.47;2.80;;;;;;;7.12;35.18;102239.59;4981947;28;20047;-73
2024/01/29 06:25:34;;;;;;;4.57;2.85;;;;;;;7.12;35.04;102244.16;4965782;28;20142;-73
2024/01/29 06:28:02;;;;;;;4.90;2.95;;;;;;;7.09;35.29;102234.31;4964530;28;20094;-72
2024/01/29 06:30:33;;;;;;;4.88;3.10;;;;;;;7.10;35.28;102243.38;4970159;28;20042;-73
2024/01/29 06:33:01;;;;;;;4.80;3.00;;;;;;;7.08;35.22;102242.56;4968876;28;20073;-73
2024/01/29 06:35:29;;;;;;;4.45;2.85;;;;;;;7.07;35.21;102244.41;4967142;28;20101;-72
2024/01/29 06:37:58;;;;;;;4.95;2.72;;;;;;;7.07;35.37;102263.44;4965435;28;20074;-72
2024/01/29 06:40:27;;;;;;;6.32;3.00;;;;;;;7.04;35.19;102270.88;4963654;28;20042;-73
2024/01/29 06:42:56;;;;;;;5.40;3.00;;;;;;;7.03;35.15;102263.66;4965554;28;20634;-72
2024/01/29 06:45:24;;;;;;;5.15;3.03;;;;;;;7.01;35.53;102266.50;4966071;28;20733;-72
2024/01/29 06:47:52;;;;;;;5.00;3.47;;;;;;;7.00;35.45;102264.72;4964754;28;20064;-72
2024/01/29 06:50:20;;;;;;;6.13;3.33;;;;;;;6.99;35.48;102265.69;4969201;28;20358;-73
2024/01/29 06:52:48;;;;;;;5.57;3.30;;;;;;;6.98;35.36;102265.75;4966353;28;20418;-73
2024/01/29 06:55:20;;;;;;;5.00;3.60;;;;;;;6.98;35.66;102274.81;4963152;28;20067;-75
2024/01/29 06:57:48;;;;;;;5.43;3.20;;;;;;;6.93;35.55;102271.44;4965724;28;20523;-74
2024/01/29 07:00:17;;;;;;;4.70;3.15;;;;;;;6.94;35.61;102275.06;4960892;28;20070;-74
2024/01/29 07:02:45;;;;;;;5.45;3.47;;;;;;;6.93;35.58;102278.72;4969423;28;20081;-74
2024/01/29 07:05:13;;;;;;;5.45;3.65;;;;;;;6.92;35.79;102275.13;4963112;28;20134;-74
2024/01/29 07:07:41;;;;;;;5.35;3.00;;;;;;;6.91;35.80;102278.78;4966006;28;20515;-73
2024/01/29 07:10:09;;;;;;;5.53;3.00;;;;;;;6.91;35.86;102273.34;4966995;28;20134;-74
2024/01/29 07:12:38;;;;;;;4.95;2.97;;;;;;;6.92;35.65;102271.50;4970489;28;20058;-74
2024/01/29 07:15:07;;;;;;;5.50;3.35;;;;;;;6.90;35.78;102278.88;4964299;28;20046;-74
2024/01/29 07:17:35;;;;;;;5.68;3.08;;;;;;;6.90;35.75;102278.88;4965516;28;20219;-74
2024/01/29 07:20:03;;;;;;;5.10;3.38;;;;;;;6.89;35.84;102268.94;4959309;28;20105;-74
2024/01/29 07:22:37;;;;;;;5.47;3.58;;;;;;;6.88;35.96;102272.59;4962828;28;20130;-74
2024/01/29 07:25:06;;;;;;;4.63;3.35;;;;;;;6.88;36.01;102276.22;4966852;28;20062;-74
2024/01/29 07:27:34;;;;;;;5.88;3.30;;;;;;;6.88;35.92;102283.50;4971949;28;20047;-74
2024/01/29 07:30:05;;;;;;;6.68;3.85;;;;;;;6.88;36.21;102289.81;4966025;28;20050;-74
2024/01/29 07:32:33;;;;;;;6.00;3.28;;;;;;;6.87;35.90;102296.22;4967439;28;20054;-73
2024/01/29 07:35:02;;;;;;;6.07;3.50;;;;;;;6.87;36.22;102284.44;4976838;28;20043;-74
2024/01/29 07:37:31;;;;;;;5.43;3.50;;;;;;;6.87;36.11;102290.78;4967992;28;20442;-73
2024/01/29 07:39:59;;;;;;;5.55;3.30;;;;;;;6.88;36.41;102294.38;4967185;28;20047;-74
2024/01/29 07:42:29;;;;;;;5.85;3.42;;;;;;;6.88;36.11;102306.16;4966281;28;20062;-76
2024/01/29 07:45:03;;;;;;;5.82;3.47;;;;;;;6.89;36.29;102299.75;4966969;28;20466;-76
2024/01/29 07:47:34;;;;;;;6.32;3.78;;;;;;;6.89;36.45;102298.88;4959231;28;20054;-76
2024/01/29 07:50:02;;;;;;;6.05;3.60;;;;;;;6.88;36.28;102307.97;4969591;28;20090;-76
2024/01/29 07:52:30;;;;;;;6.15;3.67;;;;;;;6.88;36.66;102313.44;4969931;28;20053;-77
2024/01/29 07:55:00;;;;;;;5.53;3.63;;;;;;;6.88;36.43;102327.03;4965953;28;20391;-77
2024/01/29 07:57:28;;;;;;;5.35;3.40;;;;;;;6.89;36.57;102320.63;4969598;28;20065;-76
2024/01/29 07:59:57;;;;;;;5.97;3.70;;;;;;;6.90;36.65;102322.41;4964265;28;20042;-76
2024/01/29 08:02:25;;;;;;;6.82;3.50;;;;;;;6.91;36.70;102327.78;4963353;28;20102;-76
2024/01/29 08:04:55;;;;;;;6.10;3.70;;;;;;;6.92;36.76;102321.38;4958404;28;20043;-76
2024/01/29 08:07:23;;;;;;;5.38;3.53;;;;;;;6.94;36.83;102326.75;4961904;28;20138;-76
2024/01/29 08:09:51;;;;;;;7.20;3.88;;;;;;;6.94;36.87;102314.00;4960936;28;20034;-77
2024/01/29 08:12:20;;;;;;;6.28;3.60;;;;;;;6.95;36.82;102315.78;4967413;28;20514;-76
2024/01/29 08:14:48;;;;;;;6.68;3.78;;;;;;;6.98;36.96;102320.19;4970116;28;20034;-76
2024/01/29 08:17:16;;;;;;;5.15;3.15;;;;;;;6.98;37.02;102310.19;4966520;28;20101;-76
2024/01/29 08:19:44;;;;;;;6.85;3.67;;;;;;;7.00;36.96;102310.13;4967411;28;20332;-76
2024/01/29 08:22:14;;;;;;;5.78;3.58;;;;;;;7.02;36.99;102316.38;4966580;28;20089;-76
2024/01/29 08:24:42;;;;;;;7.35;4.03;;;;;;;7.01;36.93;102310.06;4967216;28;20042;-76
2024/01/29 08:27:11;;;;;;;6.57;4.07;;;;;;;7.02;36.81;102308.22;4959977;28;20439;-76
2024/01/29 08:29:39;;;;;;;5.85;3.80;;;;;;;7.02;37.02;102308.22;4961337;28;20058;-76
2024/01/29 08:32:07;;;;;;;6.28;3.90;;;;;;;7.03;36.87;102308.09;4967835;28;20039;-76
2024/01/29 08:34:35;;;;;;;6.35;3.97;;;;;;;7.03;36.99;102310.81;4967228;28;20510;-76
2024/01/29 08:37:04;;;;;;;5.72;3.92;;;;;;;7.04;37.00;102309.00;4964642;28;20053;-76
2024/01/29 08:39:33;;;;;;;8.02;4.28;;;;;;;7.05;36.94;102317.09;4969389;28;20039;-76
2024/01/29 08:42:03;;;;;;;7.88;4.32;;;;;;;7.05;37.18;102302.59;4971883;28;20050;-76
2024/01/29 08:44:31;;;;;;;5.85;3.75;;;;;;;7.05;37.06;102300.75;4968683;28;20039;-76
2024/01/29 08:46:59;;;;;;;6.18;4.22;;;;;;;7.06;37.14;102304.38;4959479;28;20051;-75
2024/01/29 08:49:27;;;;;;;4.97;3.72;;;;;;;7.07;37.35;102306.13;4963027;28;20047;-75
2024/01/29 08:51:55;;;;;;;6.65;3.90;;;;;;;7.08;37.40;102326.94;4962951;28;20035;-72
2024/01/29 08:54:23;;;;;;;6.43;4.15;;;;;;;7.09;37.50;102320.56;4965858;28;20069;-76
2024/01/29 08:56:52;;;;;;;7.07;4.35;;;;;;;7.13;37.28;102333.91;4952311;28;20043;-75
2024/01/29 08:59:29;;;;;;;7.22;3.95;;;;;;;7.17;37.61;102334.66;4950275;28;20126;-76
2024/01/29 09:01:58;;;;;;;8.70;4.22;;;;;;;7.16;37.62;102331.06;4950994;28;20142;-76
2024/01/29 09:04:26;;;;;;;5.40;3.75;;;;;;;7.19;37.69;102336.34;4952684;28;20126;-77
2024/01/29 09:06:55;;;;;;;6.95;4.10;;;;;;;7.23;37.58;102333.47;4952975;28;20125;-73
2024/01/29 09:09:23;;;;;;;5.97;3.75;;;;;;;7.27;37.69;102335.09;4961656;28;20585;-73
2024/01/29 09:11:52;;;;;;;6.55;3.80;;;;;;;7.31;37.76;102329.41;4955507;28;20066;-74
2024/01/29 09:14:21;;;;;;;6.28;4.10;;;;;;;7.35;37.66;102339.19;4961037;28;20410;-74
2024/01/29 09:16:49;;;;;;;6.03;3.90;;;;;;;7.39;37.56;102340.78;4964743;28;20047;-74
2024/01/29 09:19:20;;;;;;;5.97;3.55;;;;;;;7.43;37.56;102326.06;4968874;28;20070;-74
2024/01/29 09:21:48;;;;;;;6.47;4.07;;;;;;;7.50;37.61;102334.81;4966014;28;20133;-74
2024/01/29 09:24:17;;;;;;;6.38;4.32;;;;;;;7.55;37.71;102339.03;4969600;28;20082;-74
2024/01/29 09:26:45;;;;;;;7.45;4.30;;;;;;;7.61;37.97;102337.84;4965948;28;20480;-74
2024/01/29 09:29:15;;;;;;;6.95;4.05;;;;;;;7.68;37.75;102333.84;4962153;28;20098;-74
2024/01/29 09:31:44;;;;;;;6.95;4.30;;;;;;;7.74;38.01;102335.38;4966752;28;20081;-74
2024/01/29 09:34:12;;;;;;;6.95;4.30;;;;;;;7.79;37.93;102331.44;4970123;28;20486;-74
2024/01/29 09:36:40;;;;;;;6.57;4.07;;;;;;;7.85;37.95;102333.81;4967759;28;20134;-74
2024/01/29 09:39:08;;;;;;;6.10;4.30;;;;;;;7.91;37.82;102335.38;4955435;28;20062;-73
2024/01/29 09:41:38;;;;;;;8.00;4.05;;;;;;;8.00;37.97;102331.28;4965175;28;20143;-73
2024/01/29 09:44:08;;;;;;;5.63;4.20;;;;;;;8.07;37.77;102332.69;4968823;28;20105;-73
2024/01/29 09:46:40;;;;;;;5.70;4.25;;;;;;;8.15;37.80;102328.63;4966650;28;20045;-75
2024/01/29 09:49:08;;;;;;;6.72;4.45;;;;;;;8.19;37.93;102332.94;4961353;28;20092;-75
2024/01/29 09:51:37;;;;;;;5.93;3.92;;;;;;;8.25;38.15;102327.16;4958213;28;20092;-75
2024/01/29 09:54:05;;;;;;;6.57;4.22;;;;;;;8.34;37.58;102325.78;4962433;28;20043;-75
2024/01/29 09:56:33;;;;;;;6.85;4.03;;;;;;;8.41;37.78;102329.94;4964016;28;20066;-75
2024/01/29 09:59:01;;;;;;;6.32;3.63;;;;;;;8.48;37.94;102341.38;4969502;28;20452;-75
2024/01/29 10:01:30;;;;;;;6.57;3.97;;;;;;;8.54;37.57;102339.19;4967962;28;20053;-75
2024/01/29 10:03:59;;;;;;;4.95;3.92;;;;;;;8.63;37.85;102337.78;4982743;28;20054;-75
2024/01/29 10:06:27;;;;;;;6.57;4.00;;;;;;;8.70;37.73;102333.75;4968658;28;20039;-76
2024/01/29 10:09:00;;;;;;;5.90;3.75;;;;;;;8.75;37.91;102347.16;4965777;28;20119;-76
2024/01/29 10:11:29;;;;;;;5.78;3.65;;;;;;;8.86;37.55;102350.13;4963185;28;20043;-75
2024/01/29 10:14:00;;;;;;;5.72;3.80;;;;;;;8.93;37.28;102346.97;4965294;28;20498;-75
2024/01/29 10:16:30;;;;;;;5.35;3.60;;;;;;;9.00;37.52;102342.91;4967229;28;20382;-76
2024/01/29 10:19:01;;;;;;;5.85;3.58;;;;;;;9.08;37.38;102347.97;4969365;28;20410;-76
2024/01/29 10:21:38;;;;;;;7.65;3.70;;;;;;;9.14;37.37;102343.97;4965827;28;20051;-76
2024/01/29 10:24:13;;;;;;;5.13;3.60;;;;;;;9.22;37.36;102348.03;4961674;28;20055;-75
2024/01/29 10:26:42;;;;;;;6.18;3.83;;;;;;;9.26;37.19;102348.72;4968228;28;20051;-76
2024/01/29 10:29:10;;;;;;;5.20;3.70;;;;;;;9.33;37.20;102352.88;4963225;28;20129;-75
2024/01/29 10:31:40;;;;;;;6.05;3.92;;;;;;;9.36;37.32;102350.81;4961262;28;20047;-76
2024/01/29 10:34:10;;;;;;;6.40;4.13;;;;;;;9.42;37.21;102352.34;4965935;28;20069;-76
2024/01/29 10:36:39;;;;;;;6.35;4.32;;;;;;;9.45;36.91;102350.31;4963899;28;20431;-75
2024/01/29 10:39:08;;;;;;;6.72;4.00;;;;;;;9.50;37.19;102349.16;4965345;28;20034;-75
2024/01/29 10:41:37;;;;;;;9.75;4.07;;;;;;;9.53;37.02;102348.97;4965797;28;20454;-75
2024/01/29 10:44:05;;;;;;;6.25;4.07;;;;;;;9.57;37.32;102348.72;4970529;28;20051;-75
2024/01/29 10:46:37;;;;;;;7.15;4.05;;;;;;;9.63;37.13;102350.19;4968057;28;20039;-75
2024/01/29 10:49:06;;;;;;;6.95;4.22;;;;;;;9.64;36.96;102341.91;4963264;28;20131;-75
2024/01/29 10:51:36;;;;;;;6.40;3.88;;;;;;;9.72;37.32;102346.91;4969776;28;20039;-75
2024/01/29 10:56:52;;;;;;;6.88;4.28;;;;;;;9.80;37.13;102334.53;4927198;29;20036;-76
2024/01/29 10:59:22;;;;;;;7.28;3.97;;;;;;;9.85;36.95;102334.25;4917372;29;20044;-76
2024/01/29 11:01:52;;;;;;;5.53;4.22;;;;;;;9.90;36.96;102333.97;4914583;29;20043;-76
2024/01/29 11:04:31;;;;;;;5.38;3.78;;;;;;;9.94;36.75;102330.94;4896802;29;20068;-76
2024/01/29 11:07:11;;;;;;;6.00;3.92;;;;;;;9.99;36.95;102336.16;4921828;29;20074;-76
2024/01/29 11:09:49;;;;;;;5.65;3.75;;;;;;;10.05;36.72;102333.91;4921845;29;20056;-76
2024/01/29 11:12:17;;;;;;;4.55;3.47;;;;;;;10.08;36.66;102335.56;4892467;29;20156;-76
2024/01/29 11:14:57;;;;;;;5.40;3.70;;;;;;;10.15;36.88;102331.47;4894637;29;20084;-76
2024/01/29 11:17:26;;;;;;;5.22;3.63;;;;;;;10.17;37.00;102324.03;4893898;29;20041;-76
2024/01/29 11:19:54;;;;;;;5.32;3.72;;;;;;;10.22;36.95;102319.19;4907924;29;20051;-76
2024/01/29 11:22:23;;;;;;;6.50;3.90;;;;;;;10.27;36.69;102319.75;4893240;29;20040;-76
2024/01/29 11:24:51;;;;;;;6.05;4.15;;;;;;;10.32;36.89;102322.22;4893746;29;20135;-76
2024/01/29 11:27:22;;;;;;;6.80;3.70;;;;;;;10.36;36.99;102313.69;4894333;29;20051;-76
2024/01/29 11:29:50;;;;;;;7.22;3.75;;;;;;;10.41;36.72;102322.47;4896009;29;20515;-76
2024/01/29 11:32:18;;;;;;;5.95;3.83;;;;;;;10.48;36.81;102314.78;4896529;29;20063;-76
2024/01/29 11:34:47;;;;;;;7.47;4.07;;;;;;;10.51;36.79;102318.19;4904531;29;20124;-75
2024/01/29 11:37:28;;;;;;;5.47;3.60;;;;;;;10.61;36.53;102313.03;4894247;29;20136;-76
2024/01/29 11:39:56;;;;;;;5.80;4.03;;;;;;;10.64;37.02;102320.19;4907928;29;20045;-75
2024/01/29 11:42:24;;;;;;;5.28;3.45;;;;;;;10.72;37.07;102312.34;4906083;29;20587;-75
2024/01/29 11:44:53;;;;;;;5.25;3.60;;;;;;;10.79;36.72;102313.69;4889624;29;20041;-75